sensor_id;sensor_type;location;lat;lon;timestamp;temperature;humidity
5392;DHT22;2719;53.624;9.786;2022-11-20T00:00:47;4.30;99.90
5392;DHT22;2719;53.624;9.786;2022-11-20T00:03:14;4.30;99.90
5392;DHT22;2719;53.624;9.786;2022-11-20T00:05:40;4.30;99.90
5392;DHT22;2719;53.624;9.786;2022-11-20T00:08:07;4.20;99.90
5392;DHT22;2719;53.624;9.786;2022-11-20T00:10:36;4.20;99.90
5392;DHT22;2719;53.624;9.786;2022-11-20T00:13:04;4.20;99.90
5392;DHT22;2719;53.624;9.786;2022-11-20T00:15:31;4.30;99.90
5392;DHT22;2719;53.624;9.786;2022-11-20T00:17:58;4.30;99.90
5392;DHT22;2719;53.624;9.786;2022-11-20T00:20:25;4.30;99.90
5392;DHT22;2719;53.624;9.786;2022-11-20T00:22:51;4.30;99.90
5392;DHT22;2719;53.624;9.786;2022-11-20T00:25:18;4.40;99.90
5392;DHT22;2719;53.624;9.786;2022-11-20T00:27:45;4.40;99.90
5392;DHT22;2719;53.624;9.786;2022-11-20T00:32:39;4.50;99.90
5392;DHT22;2719;53.624;9.786;2022-11-20T00:35:06;4.50;99.90
5392;DHT22;2719;53.624;9.786;2022-11-20T00:37:33;4.50;99.90
5392;DHT22;2719;53.624;9.786;2022-11-20T00:40:00;4.50;99.90
5392;DHT22;2719;53.624;9.786;2022-11-20T00:42:26;4.40;99.90
5392;DHT22;2719;53.624;9.786;2022-11-20T00:44:53;4.50;99.90
5392;DHT22;2719;53.624;9.786;2022-11-20T00:47:21;4.40;99.90
5392;DHT22;2719;53.624;9.786;2022-11-20T00:49:48;4.40;99.90
5392;DHT22;2719;53.624;9.786;2022-11-20T00:52:14;4.30;99.90
5392;DHT22;2719;53.624;9.786;2022-11-20T00:54:41;4.30;99.90
5392;DHT22;2719;53.624;9.786;2022-11-20T00:57:08;4.30;99.90
5392;DHT22;2719;53.624;9.786;2022-11-20T00:59:35;4.30;99.90
5392;DHT22;2719;53.624;9.786;2022-11-20T01:02:01;4.20;99.90
5392;DHT22;2719;53.624;9.786;2022-11-20T01:04:29;4.30;99.90
5392;DHT22;2719;53.624;9.786;2022-11-20T01:06:56;4.30;99.90
5392;DHT22;2719;53.624;9.786;2022-11-20T01:09:23;4.40;99.90
5392;DHT22;2719;53.624;9.786;2022-11-20T01:11:49;4.30;99.90
5392;DHT22;2719;53.624;9.786;2022-11-20T01:14:18;4.30;99.90
5392;DHT22;2719;53.624;9.786;2022-11-20T01:16:47;4.40;99.90
5392;DHT22;2719;53.624;9.786;2022-11-20T01:19:16;4.40;99.90
5392;DHT22;2719;53.624;9.786;2022-11-20T01:21:45;4.40;99.90
5392;DHT22;2719;53.624;9.786;2022-11-20T01:24:13;4.30;99.90
5392;DHT22;2719;53.624;9.786;2022-11-20T01:26:42;4.30;99.90
5392;DHT22;2719;53.624;9.786;2022-11-20T01:29:13;4.20;99.90
5392;DHT22;2719;53.624;9.786;2022-11-20T01:31:41;4.30;99.90
5392;DHT22;2719;53.624;9.786;2022-11-20T01:34:10;4.30;99.90
5392;DHT22;2719;53.624;9.786;2022-11-20T01:36:38;4.20;99.90
5392;DHT22;2719;53.624;9.786;2022-11-20T01:39:10;4.30;99.90
5392;DHT22;2719;53.624;9.786;2022-11-20T01:41:38;4.20;99.90
5392;DHT22;2719;53.624;9.786;2022-11-20T01:44:52;4.10;99.90
5392;DHT22;2719;53.624;9.786;2022-11-20T01:47:24;4.10;99.90
5392;DHT22;2719;53.624;9.786;2022-11-20T01:49:55;4.10;99.90
5392;DHT22;2719;53.624;9.786;2022-11-20T01:52:25;4.10;99.90
5392;DHT22;2719;53.624;9.786;2022-11-20T01:54:59;4.20;99.90
5392;DHT22;2719;53.624;9.786;2022-11-20T01:57:29;4.20;99.90
5392;DHT22;2719;53.624;9.786;2022-11-20T02:00:00;4.20;99.90
5392;DHT22;2719;53.624;9.786;2022-11-20T02:02:28;4.30;99.90
5392;DHT22;2719;53.624;9.786;2022-11-20T02:04:57;4.30;99.90
5392;DHT22;2719;53.624;9.786;2022-11-20T02:07:27;4.40;99.90
5392;DHT22;2719;53.624;9.786;2022-11-20T02:09:56;4.40;99.90
5392;DHT22;2719;53.624;9.786;2022-11-20T02:12:22;4.30;99.90
5392;DHT22;2719;53.624;9.786;2022-11-20T02:15:08;4.40;99.90
5392;DHT22;2719;53.624;9.786;2022-11-20T02:17:35;4.40;99.90
5392;DHT22;2719;53.624;9.786;2022-11-20T02:20:02;4.40;99.90
5392;DHT22;2719;53.624;9.786;2022-11-20T02:22:33;4.30;99.90
5392;DHT22;2719;53.624;9.786;2022-11-20T02:25:04;4.30;99.90
5392;DHT22;2719;53.624;9.786;2022-11-20T02:27:32;4.20;99.90
5392;DHT22;2719;53.624;9.786;2022-11-20T02:30:01;4.30;99.90
5392;DHT22;2719;53.624;9.786;2022-11-20T02:32:31;4.20;99.90
5392;DHT22;2719;53.624;9.786;2022-11-20T02:35:05;4.20;99.90
5392;DHT22;2719;53.624;9.786;2022-11-20T02:37:35;4.20;99.90
5392;DHT22;2719;53.624;9.786;2022-11-20T02:40:05;4.30;99.90
5392;DHT22;2719;53.624;9.786;2022-11-20T02:42:31;4.20;99.90
5392;DHT22;2719;53.624;9.786;2022-11-20T02:44:58;4.10;99.90
5392;DHT22;2719;53.624;9.786;2022-11-20T02:47:25;4.20;99.90
5392;DHT22;2719;53.624;9.786;2022-11-20T02:49:51;4.20;99.90
5392;DHT22;2719;53.624;9.786;2022-11-20T02:52:18;4.30;99.90
5392;DHT22;2719;53.624;9.786;2022-11-20T02:54:44;4.30;99.90
5392;DHT22;2719;53.624;9.786;2022-11-20T02:57:12;4.20;99.90
5392;DHT22;2719;53.624;9.786;2022-11-20T02:59:39;4.30;99.90
5392;DHT22;2719;53.624;9.786;2022-11-20T03:02:06;4.20;99.90
5392;DHT22;2719;53.624;9.786;2022-11-20T03:04:33;4.20;99.90
5392;DHT22;2719;53.624;9.786;2022-11-20T03:06:59;4.30;99.90
5392;DHT22;2719;53.624;9.786;2022-11-20T03:09:26;4.30;99.90
5392;DHT22;2719;53.624;9.786;2022-11-20T03:11:53;4.30;99.90
5392;DHT22;2719;53.624;9.786;2022-11-20T03:14:21;4.30;99.90
5392;DHT22;2719;53.624;9.786;2022-11-20T03:16:48;4.20;99.90
5392;DHT22;2719;53.624;9.786;2022-11-20T03:19:14;4.20;99.90
5392;DHT22;2719;53.624;9.786;2022-11-20T03:21:41;4.00;99.90
5392;DHT22;2719;53.624;9.786;2022-11-20T03:24:08;4.10;99.90
5392;DHT22;2719;53.624;9.786;2022-11-20T03:26:34;4.10;99.90
5392;DHT22;2719;53.624;9.786;2022-11-20T03:29:02;4.10;99.90
5392;DHT22;2719;53.624;9.786;2022-11-20T03:31:33;4.00;99.90
5392;DHT22;2719;53.624;9.786;2022-11-20T03:34:01;4.00;99.90
5392;DHT22;2719;53.624;9.786;2022-11-20T03:36:28;4.00;99.90
5392;DHT22;2719;53.624;9.786;2022-11-20T03:38:55;4.00;99.90
5392;DHT22;2719;53.624;9.786;2022-11-20T03:41:24;4.00;99.90
5392;DHT22;2719;53.624;9.786;2022-11-20T03:43:52;4.10;99.90
5392;DHT22;2719;53.624;9.786;2022-11-20T03:46:19;4.10;99.90
5392;DHT22;2719;53.624;9.786;2022-11-20T03:48:48;4.10;99.90
5392;DHT22;2719;53.624;9.786;2022-11-20T03:51:16;4.00;99.90
5392;DHT22;2719;53.624;9.786;2022-11-20T03:53:45;4.10;99.90
5392;DHT22;2719;53.624;9.786;2022-11-20T03:56:13;4.10;99.90
5392;DHT22;2719;53.624;9.786;2022-11-20T03:58:42;4.10;99.90
5392;DHT22;2719;53.624;9.786;2022-11-20T04:01:10;4.00;99.90
5392;DHT22;2719;53.624;9.786;2022-11-20T04:03:38;4.00;99.90
5392;DHT22;2719;53.624;9.786;2022-11-20T04:06:09;4.00;99.90
5392;DHT22;2719;53.624;9.786;2022-11-20T04:08:36;3.90;99.90
5392;DHT22;2719;53.624;9.786;2022-11-20T04:11:11;3.90;99.90
5392;DHT22;2719;53.624;9.786;2022-11-20T04:13:38;4.00;99.90
5392;DHT22;2719;53.624;9.786;2022-11-20T04:16:06;3.90;99.90
5392;DHT22;2719;53.624;9.786;2022-11-20T04:18:33;3.90;99.90
5392;DHT22;2719;53.624;9.786;2022-11-20T04:21:00;4.00;99.90
5392;DHT22;2719;53.624;9.786;2022-11-20T04:23:28;4.00;99.90
5392;DHT22;2719;53.624;9.786;2022-11-20T04:26:01;3.90;99.90
5392;DHT22;2719;53.624;9.786;2022-11-20T04:28:28;4.00;99.90
5392;DHT22;2719;53.624;9.786;2022-11-20T04:31:01;4.10;99.90
5392;DHT22;2719;53.624;9.786;2022-11-20T04:33:28;3.90;99.90
5392;DHT22;2719;53.624;9.786;2022-11-20T04:35:55;3.90;99.90
5392;DHT22;2719;53.624;9.786;2022-11-20T04:38:26;3.90;99.90
5392;DHT22;2719;53.624;9.786;2022-11-20T04:40:57;3.80;99.90
5392;DHT22;2719;53.624;9.786;2022-11-20T04:43:24;3.90;99.90
5392;DHT22;2719;53.624;9.786;2022-11-20T04:45:51;4.00;99.90
5392;DHT22;2719;53.624;9.786;2022-11-20T04:48:18;3.90;99.90
5392;DHT22;2719;53.624;9.786;2022-11-20T04:50:45;3.90;99.90
5392;DHT22;2719;53.624;9.786;2022-11-20T04:53:11;4.00;99.90
5392;DHT22;2719;53.624;9.786;2022-11-20T04:55:38;4.00;99.90
5392;DHT22;2719;53.624;9.786;2022-11-20T04:58:07;4.00;99.90
5392;DHT22;2719;53.624;9.786;2022-11-20T05:00:33;4.00;99.90
5392;DHT22;2719;53.624;9.786;2022-11-20T05:03:00;4.10;99.90
5392;DHT22;2719;53.624;9.786;2022-11-20T05:05:27;4.10;99.90
5392;DHT22;2719;53.624;9.786;2022-11-20T05:07:55;4.10;99.90
5392;DHT22;2719;53.624;9.786;2022-11-20T05:10:22;4.00;99.90
5392;DHT22;2719;53.624;9.786;2022-11-20T05:12:49;3.90;99.90
5392;DHT22;2719;53.624;9.786;2022-11-20T05:15:17;3.90;99.90
5392;DHT22;2719;53.624;9.786;2022-11-20T05:17:47;3.90;99.90
5392;DHT22;2719;53.624;9.786;2022-11-20T05:20:13;3.80;99.90
5392;DHT22;2719;53.624;9.786;2022-11-20T05:22:40;3.80;99.90
5392;DHT22;2719;53.624;9.786;2022-11-20T05:25:07;3.70;99.90
5392;DHT22;2719;53.624;9.786;2022-11-20T05:27:34;3.80;99.90
5392;DHT22;2719;53.624;9.786;2022-11-20T05:30:01;3.70;99.90
5392;DHT22;2719;53.624;9.786;2022-11-20T05:32:29;3.60;99.90
5392;DHT22;2719;53.624;9.786;2022-11-20T05:34:56;3.60;99.90
5392;DHT22;2719;53.624;9.786;2022-11-20T05:37:22;3.50;99.90
5392;DHT22;2719;53.624;9.786;2022-11-20T05:39:49;3.50;99.90
5392;DHT22;2719;53.624;9.786;2022-11-20T05:42:16;3.50;99.90
5392;DHT22;2719;53.624;9.786;2022-11-20T05:44:58;3.50;99.90
5392;DHT22;2719;53.624;9.786;2022-11-20T05:47:25;3.50;99.90
5392;DHT22;2719;53.624;9.786;2022-11-20T05:49:53;3.50;99.90
5392;DHT22;2719;53.624;9.786;2022-11-20T05:52:20;3.50;99.90
5392;DHT22;2719;53.624;9.786;2022-11-20T05:54:46;3.60;99.90
5392;DHT22;2719;53.624;9.786;2022-11-20T05:57:13;3.50;99.90
5392;DHT22;2719;53.624;9.786;2022-11-20T05:59:39;3.50;99.90
5392;DHT22;2719;53.624;9.786;2022-11-20T06:02:06;3.50;99.90
5392;DHT22;2719;53.624;9.786;2022-11-20T06:04:33;3.50;99.90
5392;DHT22;2719;53.624;9.786;2022-11-20T06:07:01;3.40;99.90
5392;DHT22;2719;53.624;9.786;2022-11-20T06:09:28;3.40;99.90
5392;DHT22;2719;53.624;9.786;2022-11-20T06:11:55;3.50;99.90
5392;DHT22;2719;53.624;9.786;2022-11-20T06:14:22;3.60;99.90
5392;DHT22;2719;53.624;9.786;2022-11-20T06:16:48;3.60;99.90
5392;DHT22;2719;53.624;9.786;2022-11-20T06:19:15;3.60;99.90
5392;DHT22;2719;53.624;9.786;2022-11-20T06:21:42;3.70;99.90
5392;DHT22;2719;53.624;9.786;2022-11-20T06:24:10;3.70;99.90
5392;DHT22;2719;53.624;9.786;2022-11-20T06:26:37;3.60;99.90
5392;DHT22;2719;53.624;9.786;2022-11-20T06:29:04;3.70;99.90
5392;DHT22;2719;53.624;9.786;2022-11-20T06:31:31;3.60;99.90
5392;DHT22;2719;53.624;9.786;2022-11-20T06:34:00;3.70;99.90
5392;DHT22;2719;53.624;9.786;2022-11-20T06:36:27;3.70;99.90
5392;DHT22;2719;53.624;9.786;2022-11-20T06:38:54;3.80;99.90
5392;DHT22;2719;53.624;9.786;2022-11-20T06:41:23;3.90;99.90
5392;DHT22;2719;53.624;9.786;2022-11-20T06:43:50;3.90;99.90
5392;DHT22;2719;53.624;9.786;2022-11-20T06:46:19;4.00;99.90
5392;DHT22;2719;53.624;9.786;2022-11-20T06:48:46;4.00;99.90
5392;DHT22;2719;53.624;9.786;2022-11-20T06:51:13;4.10;99.90
5392;DHT22;2719;53.624;9.786;2022-11-20T06:53:40;4.00;99.90
5392;DHT22;2719;53.624;9.786;2022-11-20T06:56:07;4.00;99.90
5392;DHT22;2719;53.624;9.786;2022-11-20T06:58:35;3.90;99.90
5392;DHT22;2719;53.624;9.786;2022-11-20T07:01:04;3.80;99.90
5392;DHT22;2719;53.624;9.786;2022-11-20T07:03:31;3.80;99.90
5392;DHT22;2719;53.624;9.786;2022-11-20T07:05:58;3.80;99.90
5392;DHT22;2719;53.624;9.786;2022-11-20T07:08:26;3.80;99.90
5392;DHT22;2719;53.624;9.786;2022-11-20T07:10:56;3.80;99.90
5392;DHT22;2719;53.624;9.786;2022-11-20T07:13:23;3.80;99.90
5392;DHT22;2719;53.624;9.786;2022-11-20T07:15:50;3.80;99.90
5392;DHT22;2719;53.624;9.786;2022-11-20T07:18:17;3.90;99.90
5392;DHT22;2719;53.624;9.786;2022-11-20T07:20:44;3.90;99.90
5392;DHT22;2719;53.624;9.786;2022-11-20T07:23:10;3.90;99.90
5392;DHT22;2719;53.624;9.786;2022-11-20T07:25:37;3.90;99.90
5392;DHT22;2719;53.624;9.786;2022-11-20T07:28:04;4.00;99.90
5392;DHT22;2719;53.624;9.786;2022-11-20T07:30:30;3.90;99.90
5392;DHT22;2719;53.624;9.786;2022-11-20T07:32:58;4.00;99.90
5392;DHT22;2719;53.624;9.786;2022-11-20T07:35:25;4.10;99.90
5392;DHT22;2719;53.624;9.786;2022-11-20T07:37:52;4.10;99.90
5392;DHT22;2719;53.624;9.786;2022-11-20T07:40:19;4.10;99.90
5392;DHT22;2719;53.624;9.786;2022-11-20T07:42:50;4.10;99.90
5392;DHT22;2719;53.624;9.786;2022-11-20T07:45:18;4.10;99.90
5392;DHT22;2719;53.624;9.786;2022-11-20T07:47:44;4.00;99.90
5392;DHT22;2719;53.624;9.786;2022-11-20T07:50:12;3.90;99.90
5392;DHT22;2719;53.624;9.786;2022-11-20T07:52:40;3.90;99.90
5392;DHT22;2719;53.624;9.786;2022-11-20T07:55:07;3.90;99.90
5392;DHT22;2719;53.624;9.786;2022-11-20T07:57:34;3.90;99.90
5392;DHT22;2719;53.624;9.786;2022-11-20T08:00:01;4.00;99.90
5392;DHT22;2719;53.624;9.786;2022-11-20T08:02:28;4.00;99.90
5392;DHT22;2719;53.624;9.786;2022-11-20T08:04:55;3.90;99.90
5392;DHT22;2719;53.624;9.786;2022-11-20T08:07:23;3.80;99.90
5392;DHT22;2719;53.624;9.786;2022-11-20T08:09:50;3.80;99.90
5392;DHT22;2719;53.624;9.786;2022-11-20T08:12:18;3.80;99.90
5392;DHT22;2719;53.624;9.786;2022-11-20T08:15:03;3.90;99.90
5392;DHT22;2719;53.624;9.786;2022-11-20T08:17:30;3.80;99.90
5392;DHT22;2719;53.624;9.786;2022-11-20T08:19:57;3.80;99.90
5392;DHT22;2719;53.624;9.786;2022-11-20T08:22:25;3.70;99.90
5392;DHT22;2719;53.624;9.786;2022-11-20T08:24:51;3.80;99.90
5392;DHT22;2719;53.624;9.786;2022-11-20T08:27:21;3.80;99.90
5392;DHT22;2719;53.624;9.786;2022-11-20T08:29:48;3.70;99.90
5392;DHT22;2719;53.624;9.786;2022-11-20T08:32:14;3.70;99.90
5392;DHT22;2719;53.624;9.786;2022-11-20T08:34:41;3.80;99.90
5392;DHT22;2719;53.624;9.786;2022-11-20T08:37:08;3.70;99.90
5392;DHT22;2719;53.624;9.786;2022-11-20T08:39:36;3.70;99.90
5392;DHT22;2719;53.624;9.786;2022-11-20T08:42:06;3.70;99.90
5392;DHT22;2719;53.624;9.786;2022-11-20T08:44:33;3.80;99.90
5392;DHT22;2719;53.624;9.786;2022-11-20T08:47:00;3.80;99.90
5392;DHT22;2719;53.624;9.786;2022-11-20T08:49:27;3.80;99.90
5392;DHT22;2719;53.624;9.786;2022-11-20T08:51:53;3.90;99.90
5392;DHT22;2719;53.624;9.786;2022-11-20T08:54:20;3.90;99.90
5392;DHT22;2719;53.624;9.786;2022-11-20T08:56:49;3.90;99.90
5392;DHT22;2719;53.624;9.786;2022-11-20T08:59:15;3.90;99.90
5392;DHT22;2719;53.624;9.786;2022-11-20T09:01:42;3.80;99.90
5392;DHT22;2719;53.624;9.786;2022-11-20T09:04:09;3.70;99.90
5392;DHT22;2719;53.624;9.786;2022-11-20T09:06:37;3.70;99.90
5392;DHT22;2719;53.624;9.786;2022-11-20T09:09:03;3.60;99.90
5392;DHT22;2719;53.624;9.786;2022-11-20T09:11:31;3.60;99.90
5392;DHT22;2719;53.624;9.786;2022-11-20T09:13:59;3.60;99.90
5392;DHT22;2719;53.624;9.786;2022-11-20T09:16:28;3.50;99.90
5392;DHT22;2719;53.624;9.786;2022-11-20T09:18:54;3.60;99.90
5392;DHT22;2719;53.624;9.786;2022-11-20T09:21:21;3.60;99.90
5392;DHT22;2719;53.624;9.786;2022-11-20T09:23:48;3.70;99.90
5392;DHT22;2719;53.624;9.786;2022-11-20T09:26:14;3.60;99.90
5392;DHT22;2719;53.624;9.786;2022-11-20T09:28:41;3.70;99.90
5392;DHT22;2719;53.624;9.786;2022-11-20T09:31:17;3.60;99.90
5392;DHT22;2719;53.624;9.786;2022-11-20T09:33:46;3.60;99.90
5392;DHT22;2719;53.624;9.786;2022-11-20T09:36:13;3.50;99.90
5392;DHT22;2719;53.624;9.786;2022-11-20T09:38:39;3.50;99.90
5392;DHT22;2719;53.624;9.786;2022-11-20T09:41:06;3.60;99.90
5392;DHT22;2719;53.624;9.786;2022-11-20T09:43:43;3.50;99.90
5392;DHT22;2719;53.624;9.786;2022-11-20T09:46:19;3.60;99.90
5392;DHT22;2719;53.624;9.786;2022-11-20T09:49:06;3.70;99.90
5392;DHT22;2719;53.624;9.786;2022-11-20T09:51:42;3.80;99.90
5392;DHT22;2719;53.624;9.786;2022-11-20T09:54:16;3.90;99.90
5392;DHT22;2719;53.624;9.786;2022-11-20T09:56:46;4.00;99.90
5392;DHT22;2719;53.624;9.786;2022-11-20T09:59:26;4.00;99.90
5392;DHT22;2719;53.624;9.786;2022-11-20T10:01:56;4.10;99.90
5392;DHT22;2719;53.624;9.786;2022-11-20T10:04:24;4.10;99.90
5392;DHT22;2719;53.624;9.786;2022-11-20T10:06:54;4.20;99.90
5392;DHT22;2719;53.624;9.786;2022-11-20T10:09:28;4.20;99.90
5392;DHT22;2719;53.624;9.786;2022-11-20T10:12:05;4.20;99.90
5392;DHT22;2719;53.624;9.786;2022-11-20T10:14:45;4.20;99.90
5392;DHT22;2719;53.624;9.786;2022-11-20T10:17:29;4.30;99.90
5392;DHT22;2719;53.624;9.786;2022-11-20T10:20:10;4.20;99.90
5392;DHT22;2719;53.624;9.786;2022-11-20T10:22:51;4.30;99.90
5392;DHT22;2719;53.624;9.786;2022-11-20T10:25:20;4.30;99.90
5392;DHT22;2719;53.624;9.786;2022-11-20T10:28:07;4.30;99.90
5392;DHT22;2719;53.624;9.786;2022-11-20T10:30:39;4.40;99.90
5392;DHT22;2719;53.624;9.786;2022-11-20T10:33:13;4.40;99.90
5392;DHT22;2719;53.624;9.786;2022-11-20T10:35:45;4.50;99.90
5392;DHT22;2719;53.624;9.786;2022-11-20T10:38:18;4.50;99.90
5392;DHT22;2719;53.624;9.786;2022-11-20T10:40:48;4.50;99.90
5392;DHT22;2719;53.624;9.786;2022-11-20T10:43:21;4.50;99.90
5392;DHT22;2719;53.624;9.786;2022-11-20T10:45:58;4.50;99.90
5392;DHT22;2719;53.624;9.786;2022-11-20T10:48:27;4.50;99.90
5392;DHT22;2719;53.624;9.786;2022-11-20T10:51:01;4.60;99.90
5392;DHT22;2719;53.624;9.786;2022-11-20T10:53:52;4.70;99.90
5392;DHT22;2719;53.624;9.786;2022-11-20T10:56:24;4.60;99.90
5392;DHT22;2719;53.624;9.786;2022-11-20T10:59:04;4.60;99.90
5392;DHT22;2719;53.624;9.786;2022-11-20T11:01:40;4.60;99.90
5392;DHT22;2719;53.624;9.786;2022-11-20T11:04:31;4.60;99.90
5392;DHT22;2719;53.624;9.786;2022-11-20T11:07:06;4.60;99.90
5392;DHT22;2719;53.624;9.786;2022-11-20T11:09:38;4.60;99.90
5392;DHT22;2719;53.624;9.786;2022-11-20T11:12:07;4.60;99.90
5392;DHT22;2719;53.624;9.786;2022-11-20T11:14:45;4.50;99.90
5392;DHT22;2719;53.624;9.786;2022-11-20T11:17:22;4.60;99.90
5392;DHT22;2719;53.624;9.786;2022-11-20T11:20:01;4.60;99.90
5392;DHT22;2719;53.624;9.786;2022-11-20T11:22:29;4.70;99.90
5392;DHT22;2719;53.624;9.786;2022-11-20T11:24:56;4.70;99.90
5392;DHT22;2719;53.624;9.786;2022-11-20T11:27:23;4.60;99.90
5392;DHT22;2719;53.624;9.786;2022-11-20T11:30:02;4.70;99.90
5392;DHT22;2719;53.624;9.786;2022-11-20T11:32:29;4.70;99.90
5392;DHT22;2719;53.624;9.786;2022-11-20T11:35:01;4.70;99.90
5392;DHT22;2719;53.624;9.786;2022-11-20T11:37:32;4.70;99.90
5392;DHT22;2719;53.624;9.786;2022-11-20T11:40:00;4.70;99.90
5392;DHT22;2719;53.624;9.786;2022-11-20T11:42:28;4.70;99.90
5392;DHT22;2719;53.624;9.786;2022-11-20T11:44:56;4.70;99.90
5392;DHT22;2719;53.624;9.786;2022-11-20T11:47:35;4.70;99.90
5392;DHT22;2719;53.624;9.786;2022-11-20T11:50:16;4.80;99.90
5392;DHT22;2719;53.624;9.786;2022-11-20T11:52:46;4.90;99.90
5392;DHT22;2719;53.624;9.786;2022-11-20T11:55:19;4.90;99.90
5392;DHT22;2719;53.624;9.786;2022-11-20T11:57:52;4.90;99.90
5392;DHT22;2719;53.624;9.786;2022-11-20T12:00:21;5.00;99.90
5392;DHT22;2719;53.624;9.786;2022-11-20T12:02:57;5.00;99.90
5392;DHT22;2719;53.624;9.786;2022-11-20T12:05:30;5.00;99.90
5392;DHT22;2719;53.624;9.786;2022-11-20T12:08:03;5.00;99.90
5392;DHT22;2719;53.624;9.786;2022-11-20T12:10:40;5.10;99.90
5392;DHT22;2719;53.624;9.786;2022-11-20T12:13:19;5.20;99.90
5392;DHT22;2719;53.624;9.786;2022-11-20T12:15:48;5.20;99.90
5392;DHT22;2719;53.624;9.786;2022-11-20T12:18:16;5.30;99.90
5392;DHT22;2719;53.624;9.786;2022-11-20T12:20:56;5.20;99.90
5392;DHT22;2719;53.624;9.786;2022-11-20T12:23:30;5.20;99.90
5392;DHT22;2719;53.624;9.786;2022-11-20T12:26:06;5.20;99.90
5392;DHT22;2719;53.624;9.786;2022-11-20T12:28:44;5.10;99.90
5392;DHT22;2719;53.624;9.786;2022-11-20T12:31:31;5.20;99.90
5392;DHT22;2719;53.624;9.786;2022-11-20T12:34:27;5.30;99.90
5392;DHT22;2719;53.624;9.786;2022-11-20T12:37:08;5.40;99.90
5392;DHT22;2719;53.624;9.786;2022-11-20T12:39:41;5.60;99.90
5392;DHT22;2719;53.624;9.786;2022-11-20T12:42:39;5.70;99.90
5392;DHT22;2719;53.624;9.786;2022-11-20T12:45:53;5.90;99.90
5392;DHT22;2719;53.624;9.786;2022-11-20T12:48:55;5.90;99.90
5392;DHT22;2719;53.624;9.786;2022-11-20T12:51:40;5.70;99.90
5392;DHT22;2719;53.624;9.786;2022-11-20T12:54:29;5.50;99.90
5392;DHT22;2719;53.624;9.786;2022-11-20T12:57:06;5.50;99.90
5392;DHT22;2719;53.624;9.786;2022-11-20T13:02:35;5.30;99.90
5392;DHT22;2719;53.624;9.786;2022-11-20T13:05:19;5.30;99.90
5392;DHT22;2719;53.624;9.786;2022-11-20T13:07:47;5.30;99.90
5392;DHT22;2719;53.624;9.786;2022-11-20T13:10:22;5.30;99.90
5392;DHT22;2719;53.624;9.786;2022-11-20T13:12:54;5.50;99.90
5392;DHT22;2719;53.624;9.786;2022-11-20T13:15:35;5.70;99.90
5392;DHT22;2719;53.624;9.786;2022-11-20T13:18:04;5.90;99.90
5392;DHT22;2719;53.624;9.786;2022-11-20T13:20:33;6.20;99.90
5392;DHT22;2719;53.624;9.786;2022-11-20T13:23:01;6.20;99.90
5392;DHT22;2719;53.624;9.786;2022-11-20T13:25:30;6.20;99.90
5392;DHT22;2719;53.624;9.786;2022-11-20T13:27:58;6.10;99.90
5392;DHT22;2719;53.624;9.786;2022-11-20T13:30:27;5.90;99.90
5392;DHT22;2719;53.624;9.786;2022-11-20T13:32:55;6.00;99.90
5392;DHT22;2719;53.624;9.786;2022-11-20T13:35:27;6.00;99.90
5392;DHT22;2719;53.624;9.786;2022-11-20T13:38:03;6.00;99.90
5392;DHT22;2719;53.624;9.786;2022-11-20T13:40:32;5.90;99.90
5392;DHT22;2719;53.624;9.786;2022-11-20T13:43:10;5.80;99.90
5392;DHT22;2719;53.624;9.786;2022-11-20T13:45:41;5.80;99.90
5392;DHT22;2719;53.624;9.786;2022-11-20T13:48:20;5.80;99.90
5392;DHT22;2719;53.624;9.786;2022-11-20T13:50:55;5.80;99.90
5392;DHT22;2719;53.624;9.786;2022-11-20T13:53:48;5.80;99.90
5392;DHT22;2719;53.624;9.786;2022-11-20T13:56:36;5.70;99.90
5392;DHT22;2719;53.624;9.786;2022-11-20T13:59:12;5.60;99.90
5392;DHT22;2719;53.624;9.786;2022-11-20T14:01:42;5.60;99.90
5392;DHT22;2719;53.624;9.786;2022-11-20T14:04:18;5.40;99.90
5392;DHT22;2719;53.624;9.786;2022-11-20T14:06:46;5.30;99.90
5392;DHT22;2719;53.624;9.786;2022-11-20T14:09:25;5.30;99.90
5392;DHT22;2719;53.624;9.786;2022-11-20T14:11:53;5.30;99.90
5392;DHT22;2719;53.624;9.786;2022-11-20T14:14:22;5.40;99.90
5392;DHT22;2719;53.624;9.786;2022-11-20T14:16:51;5.30;99.90
5392;DHT22;2719;53.624;9.786;2022-11-20T14:19:28;5.30;99.90
5392;DHT22;2719;53.624;9.786;2022-11-20T14:22:09;5.30;99.90
5392;DHT22;2719;53.624;9.786;2022-11-20T14:24:36;5.20;99.90
5392;DHT22;2719;53.624;9.786;2022-11-20T14:27:04;5.30;99.90
5392;DHT22;2719;53.624;9.786;2022-11-20T14:29:38;5.30;99.90
5392;DHT22;2719;53.624;9.786;2022-11-20T14:32:06;5.40;99.90
5392;DHT22;2719;53.624;9.786;2022-11-20T14:34:37;5.50;99.90
5392;DHT22;2719;53.624;9.786;2022-11-20T14:37:09;5.50;99.90
5392;DHT22;2719;53.624;9.786;2022-11-20T14:39:40;5.50;99.90
5392;DHT22;2719;53.624;9.786;2022-11-20T14:42:15;5.40;99.90
5392;DHT22;2719;53.624;9.786;2022-11-20T14:44:43;5.40;99.90
5392;DHT22;2719;53.624;9.786;2022-11-20T14:47:12;5.40;99.90
5392;DHT22;2719;53.624;9.786;2022-11-20T14:49:40;5.30;99.90
5392;DHT22;2719;53.624;9.786;2022-11-20T14:52:12;5.30;99.90
5392;DHT22;2719;53.624;9.786;2022-11-20T14:54:43;5.30;99.90
5392;DHT22;2719;53.624;9.786;2022-11-20T14:57:21;5.30;99.90
5392;DHT22;2719;53.624;9.786;2022-11-20T14:59:48;5.30;99.90
5392;DHT22;2719;53.624;9.786;2022-11-20T15:02:15;5.30;99.90
5392;DHT22;2719;53.624;9.786;2022-11-20T15:04:47;5.40;99.90
5392;DHT22;2719;53.624;9.786;2022-11-20T15:07:24;5.40;99.90
5392;DHT22;2719;53.624;9.786;2022-11-20T15:10:00;5.30;99.90
5392;DHT22;2719;53.624;9.786;2022-11-20T15:12:28;5.30;99.90
5392;DHT22;2719;53.624;9.786;2022-11-20T15:14:55;5.30;99.90
5392;DHT22;2719;53.624;9.786;2022-11-20T15:17:23;5.30;99.90
5392;DHT22;2719;53.624;9.786;2022-11-20T15:19:49;5.20;99.90
5392;DHT22;2719;53.624;9.786;2022-11-20T15:22:16;5.30;99.90
5392;DHT22;2719;53.624;9.786;2022-11-20T15:24:43;5.20;99.90
5392;DHT22;2719;53.624;9.786;2022-11-20T15:27:10;5.20;99.90
5392;DHT22;2719;53.624;9.786;2022-11-20T15:29:38;5.20;99.90
5392;DHT22;2719;53.624;9.786;2022-11-20T15:32:05;5.20;99.90
5392;DHT22;2719;53.624;9.786;2022-11-20T15:34:32;5.30;99.90
5392;DHT22;2719;53.624;9.786;2022-11-20T15:36:58;5.10;99.90
5392;DHT22;2719;53.624;9.786;2022-11-20T15:39:25;5.10;99.90
5392;DHT22;2719;53.624;9.786;2022-11-20T15:41:52;5.10;99.90
5392;DHT22;2719;53.624;9.786;2022-11-20T15:44:18;5.10;99.90
5392;DHT22;2719;53.624;9.786;2022-11-20T15:46:47;5.10;99.90
5392;DHT22;2719;53.624;9.786;2022-11-20T15:49:14;5.20;99.90
5392;DHT22;2719;53.624;9.786;2022-11-20T15:51:43;5.20;99.90
5392;DHT22;2719;53.624;9.786;2022-11-20T15:54:13;5.20;99.90
5392;DHT22;2719;53.624;9.786;2022-11-20T15:56:41;5.20;99.90
5392;DHT22;2719;53.624;9.786;2022-11-20T15:59:08;5.20;99.90
5392;DHT22;2719;53.624;9.786;2022-11-20T16:01:35;5.20;99.90
5392;DHT22;2719;53.624;9.786;2022-11-20T16:04:07;5.20;99.90
5392;DHT22;2719;53.624;9.786;2022-11-20T16:06:35;5.30;99.90
5392;DHT22;2719;53.624;9.786;2022-11-20T16:09:02;5.40;99.90
5392;DHT22;2719;53.624;9.786;2022-11-20T16:11:29;5.30;99.90
5392;DHT22;2719;53.624;9.786;2022-11-20T16:13:56;5.30;99.90
5392;DHT22;2719;53.624;9.786;2022-11-20T16:16:40;5.30;99.90
5392;DHT22;2719;53.624;9.786;2022-11-20T16:19:11;5.20;99.90
5392;DHT22;2719;53.624;9.786;2022-11-20T16:21:38;5.20;99.90
5392;DHT22;2719;53.624;9.786;2022-11-20T16:24:08;5.30;99.90
5392;DHT22;2719;53.624;9.786;2022-11-20T16:26:36;5.30;99.90
5392;DHT22;2719;53.624;9.786;2022-11-20T16:29:04;5.30;99.90
5392;DHT22;2719;53.624;9.786;2022-11-20T16:31:32;5.30;99.90
5392;DHT22;2719;53.624;9.786;2022-11-20T16:34:02;5.40;99.90
5392;DHT22;2719;53.624;9.786;2022-11-20T16:36:31;5.40;99.90
5392;DHT22;2719;53.624;9.786;2022-11-20T16:38:59;5.30;99.90
5392;DHT22;2719;53.624;9.786;2022-11-20T16:41:27;5.20;99.90